createdAt,value
2019-06-18T00:00:43.783Z,84.42
2019-06-18T00:01:43.774Z,84.52
2019-06-18T00:02:44.187Z,84.42
2019-06-18T00:03:43.742Z,84.13
2019-06-18T00:04:43.789Z,84.32
2019-06-18T00:05:43.753Z,84.32
2019-06-18T00:06:43.729Z,84.52
2019-06-18T00:07:43.680Z,84.52
2019-06-18T00:08:43.670Z,84.32
2019-06-18T00:09:43.666Z,84.42
2019-06-18T00:10:43.639Z,84.61
2019-06-18T00:11:43.632Z,84.23
2019-06-18T00:12:43.663Z,84.61
2019-06-18T00:13:44.959Z,84.61
2019-06-18T00:14:43.602Z,84.99
2019-06-18T00:15:48.616Z,84.99
2019-06-18T00:16:43.561Z,84.70
2019-06-18T00:17:43.542Z,84.52
2019-06-18T00:18:43.533Z,84.52
2019-06-18T00:19:43.550Z,84.52
2019-06-18T00:20:43.509Z,84.99
2019-06-18T00:21:43.493Z,84.70
2019-06-18T00:22:43.484Z,84.99
2019-06-18T00:23:43.458Z,84.99
2019-06-18T00:24:43.449Z,85.28
2019-06-18T00:25:43.436Z,84.89
2019-06-18T00:26:43.423Z,85.66
2019-06-18T00:27:43.405Z,85.38
2019-06-18T00:28:43.388Z,85.28
2019-06-18T00:29:43.413Z,85.38
2019-06-18T00:30:43.365Z,85.38
2019-06-18T00:31:43.378Z,85.18
2019-06-18T00:32:43.337Z,85.09
2019-06-18T00:33:43.324Z,85.38
2019-06-18T00:34:43.311Z,85.18
2019-06-18T00:35:43.297Z,85.18
2019-06-18T00:36:43.286Z,85.28
2019-06-18T00:37:43.273Z,85.38
2019-06-18T00:38:43.262Z,85.09
2019-06-18T00:39:43.244Z,85.47
2019-06-18T00:40:43.226Z,85.57
2019-06-18T00:41:43.213Z,85.38
2019-06-18T00:42:43.200Z,85.38
2019-06-18T00:43:43.209Z,85.47
2019-06-18T00:44:43.174Z,85.57
2019-06-18T00:45:57.456Z,85.75
2019-06-18T00:46:43.143Z,85.85
2019-06-18T00:47:43.130Z,85.66
2019-06-18T00:48:43.118Z,85.94
2019-06-18T00:49:43.104Z,85.66
2019-06-18T00:50:43.093Z,85.94
2019-06-18T00:51:43.101Z,86.43
2019-06-18T00:52:43.061Z,85.85
2019-06-18T00:53:43.054Z,86.23
2019-06-18T00:54:43.050Z,85.75
2019-06-18T00:55:43.011Z,86.52
2019-06-18T00:56:43.004Z,86.43
2019-06-18T00:57:42.993Z,85.57
2019-06-18T00:58:42.977Z,86.04
2019-06-18T00:59:42.959Z,85.94
2019-06-18T01:00:42.952Z,85.66
2019-06-18T01:01:42.943Z,86.33
2019-06-18T01:02:42.923Z,85.57
2019-06-18T01:03:42.903Z,86.23
2019-06-18T01:04:42.901Z,85.94
2019-06-18T01:05:42.877Z,86.33
2019-06-18T01:06:42.865Z,86.14
2019-06-18T01:07:42.856Z,86.33
2019-06-18T01:08:42.836Z,86.33
2019-06-18T01:09:42.820Z,86.43
2019-06-18T01:10:42.810Z,86.43
2019-06-18T01:11:42.795Z,86.14
2019-06-18T01:12:42.783Z,86.33
2019-06-18T01:13:42.771Z,86.14
2019-06-18T01:14:42.764Z,86.14
2019-06-18T01:15:42.745Z,86.33
2019-06-18T01:16:42.729Z,86.23
2019-06-18T01:17:42.713Z,86.04
2019-06-18T01:18:42.699Z,86.23
2019-06-18T01:19:42.685Z,86.14
2019-06-18T01:20:42.672Z,86.04
2019-06-18T01:21:45.721Z,86.33
2019-06-18T01:22:42.650Z,86.43
2019-06-18T01:23:45.568Z,86.43
2019-06-18T01:24:42.810Z,86.61
2019-06-18T01:25:42.999Z,86.52
2019-06-18T01:26:43.435Z,86.52
2019-06-18T01:27:43.244Z,86.43
2019-06-18T01:28:43.218Z,86.43
2019-06-18T01:29:43.162Z,86.43
2019-06-18T01:30:42.913Z,86.52
2019-06-18T01:31:43.105Z,86.71
2019-06-18T01:32:44.347Z,86.52
2019-06-18T01:33:42.713Z,86.52
2019-06-18T01:34:42.481Z,86.61
2019-06-18T01:35:42.809Z,86.43
2019-06-18T01:36:43.133Z,86.71
2019-06-18T01:37:42.430Z,86.61
2019-06-18T01:38:43.415Z,86.43
2019-06-18T01:39:42.587Z,86.61
2019-06-18T01:40:43.251Z,86.80
2019-06-18T01:41:43.196Z,86.90
2019-06-18T01:42:42.650Z,87.09
2019-06-18T01:43:42.591Z,86.80
2019-06-18T01:44:42.653Z,86.80
2019-06-18T01:45:43.337Z,86.80
2019-06-18T01:46:43.287Z,86.80
2019-06-18T01:47:42.815Z,86.80
2019-06-18T01:48:42.919Z,86.80
2019-06-18T01:49:43.044Z,86.80
2019-06-18T01:50:43.058Z,87.38
2019-06-18T01:51:42.609Z,86.80
2019-06-18T01:52:42.621Z,87.19
2019-06-18T01:53:42.820Z,87.19
2019-06-18T01:54:42.708Z,87.34
2019-06-18T01:55:42.241Z,87.05
2019-06-18T01:56:44.217Z,86.76
2019-06-18T01:57:43.751Z,86.76
2019-06-18T01:58:42.854Z,86.96
2019-06-18T01:59:42.291Z,87.15
2019-06-18T02:00:42.652Z,87.34
2019-06-18T02:01:43.004Z,86.96
2019-06-18T02:02:42.906Z,87.53
2019-06-18T02:03:43.254Z,87.62
2019-06-18T02:04:43.020Z,87.72
2019-06-18T02:05:42.493Z,87.82
2019-06-18T02:06:43.327Z,87.43
2019-06-18T02:07:42.305Z,87.62
2019-06-18T02:08:43.975Z,87.43
2019-06-18T02:09:43.135Z,87.53
2019-06-18T02:10:43.379Z,87.62
2019-06-18T02:11:43.510Z,87.82
2019-06-18T02:12:42.660Z,87.72
2019-06-18T02:13:42.513Z,87.91
2019-06-18T02:14:43.069Z,87.72
2019-06-18T02:15:42.842Z,87.72
2019-06-18T02:16:52.918Z,88.01
2019-06-18T02:17:43.301Z,87.91
2019-06-18T02:18:43.369Z,87.72
2019-06-18T02:19:42.943Z,87.43
2019-06-18T02:20:47.815Z,87.72
2019-06-18T02:21:43.285Z,87.53
2019-06-18T02:22:43.264Z,87.72
2019-06-18T02:23:42.868Z,87.43
2019-06-18T02:24:43.957Z,88.10
2019-06-18T02:25:43.124Z,88.10
2019-06-18T02:26:43.545Z,88.39
2019-06-18T02:27:42.918Z,88.01
2019-06-18T02:28:43.312Z,87.91
2019-06-18T02:29:42.513Z,88.20
2019-06-18T02:30:44.616Z,88.48
2019-06-18T02:31:44.339Z,88.48
2019-06-18T02:32:44.055Z,88.48
2019-06-18T02:33:44.325Z,88.20
2019-06-18T02:34:43.237Z,88.48
2019-06-18T02:35:43.761Z,88.29
2019-06-18T02:36:42.740Z,88.10
2019-06-18T02:37:43.107Z,88.10
2019-06-18T02:38:43.078Z,88.20
2019-06-18T02:39:43.227Z,88.20
2019-06-18T02:40:42.736Z,88.87
2019-06-18T02:41:42.626Z,89.15
2019-06-18T02:42:43.561Z,88.77
2019-06-18T02:43:42.648Z,88.73
2019-06-18T02:44:43.143Z,88.58
2019-06-18T02:45:42.814Z,88.87
2019-06-18T02:46:42.651Z,88.63
2019-06-18T02:47:42.938Z,88.54
2019-06-18T02:48:42.316Z,88.82
2019-06-18T02:49:42.811Z,88.73
2019-06-18T02:50:42.786Z,88.54
2019-06-18T02:51:42.494Z,88.63
2019-06-18T02:52:43.471Z,88.82
2019-06-18T02:53:43.271Z,89.11
2019-06-18T02:54:42.584Z,88.92
2019-06-18T02:55:43.641Z,88.82
2019-06-18T02:56:42.947Z,88.92
2019-06-18T02:57:42.632Z,88.73
2019-06-18T02:58:42.244Z,88.73
2019-06-18T02:59:42.815Z,88.54
2019-06-18T03:00:42.991Z,88.92
2019-06-18T03:01:43.386Z,89.01
2019-06-18T03:02:42.977Z,88.92
2019-06-18T03:03:42.736Z,88.92
2019-06-18T03:04:43.444Z,89.01
2019-06-18T03:05:42.675Z,89.01
2019-06-18T03:06:42.818Z,88.92
2019-06-18T03:07:42.903Z,89.11
2019-06-18T03:08:42.872Z,88.73
2019-06-18T03:09:43.084Z,89.01
2019-06-18T03:10:43.352Z,89.30
2019-06-18T03:11:43.213Z,89.39
2019-06-18T03:12:43.070Z,89.01
2019-06-18T03:13:42.661Z,89.01
2019-06-18T03:14:43.448Z,89.59
2019-06-18T03:15:42.993Z,89.49
2019-06-18T03:16:42.321Z,89.59
2019-06-18T03:17:42.801Z,89.59
2019-06-18T03:18:42.685Z,89.59
2019-06-18T03:19:42.466Z,89.68
2019-06-18T03:20:42.835Z,89.68
2019-06-18T03:21:42.814Z,89.68
2019-06-18T03:22:43.175Z,89.39
2019-06-18T03:23:42.760Z,89.49
2019-06-18T03:24:42.357Z,89.39
2019-06-18T03:25:42.567Z,89.59
2019-06-18T03:26:43.093Z,89.20
2019-06-18T03:27:42.517Z,89.20
2019-06-18T03:28:42.932Z,89.30
2019-06-18T03:29:43.052Z,89.20
2019-06-18T03:30:44.489Z,89.68
2019-06-18T03:31:40.829Z,89.59
2019-06-18T03:32:44.504Z,89.97
2019-06-18T03:33:43.660Z,89.68
2019-06-18T03:34:44.141Z,89.78
2019-06-18T03:35:43.317Z,89.68
2019-06-18T03:36:42.745Z,89.68
2019-06-18T03:37:42.360Z,90.06
2019-06-18T03:38:42.907Z,90.25
2019-06-18T03:39:43.363Z,90.25
2019-06-18T03:40:43.568Z,90.25
2019-06-18T03:41:43.066Z,90.16
2019-06-18T03:42:42.526Z,90.16
2019-06-18T03:43:42.387Z,90.16
2019-06-18T03:44:43.198Z,90.06
2019-06-18T03:45:42.795Z,90.35
2019-06-18T03:46:42.540Z,90.06
2019-06-18T03:47:46.742Z,89.97
2019-06-18T03:48:42.819Z,90.06
2019-06-18T03:49:42.778Z,90.45
2019-06-18T03:50:42.680Z,90.35
2019-06-18T03:51:42.373Z,90.35
2019-06-18T03:52:42.454Z,90.92
2019-06-18T03:53:42.846Z,90.25
2019-06-18T03:54:42.643Z,90.73
2019-06-18T03:55:42.687Z,90.54
2019-06-18T03:56:42.474Z,90.54
2019-06-18T03:57:42.526Z,90.73
2019-06-18T03:58:40.428Z,90.06
2019-06-18T03:59:42.852Z,90.54
2019-06-18T04:00:42.611Z,90.35
2019-06-18T04:01:40.388Z,90.83
2019-06-18T04:02:42.655Z,90.78
2019-06-18T04:03:42.987Z,90.39
2019-06-18T04:04:40.340Z,90.39
2019-06-18T04:05:42.458Z,90.39
2019-06-18T04:06:40.314Z,90.88
2019-06-18T04:07:40.301Z,90.11
2019-06-18T04:08:43.117Z,90.30
2019-06-18T04:09:42.620Z,90.59
2019-06-18T04:10:40.254Z,90.78
2019-06-18T04:11:40.242Z,90.68
2019-06-18T04:12:40.225Z,90.59
2019-06-18T04:13:43.019Z,90.68
2019-06-18T04:14:42.622Z,90.97
2019-06-18T04:15:42.297Z,90.97
2019-06-18T04:16:40.170Z,90.49
2019-06-18T04:17:42.134Z,90.49
2019-06-18T04:18:42.154Z,90.68
2019-06-18T04:19:40.127Z,90.49
2019-06-18T04:20:43.045Z,90.59
2019-06-18T04:21:42.271Z,90.59
2019-06-18T04:22:42.665Z,90.59
2019-06-18T04:23:40.077Z,90.39
2019-06-18T04:24:42.715Z,90.68
2019-06-18T04:25:43.164Z,90.68
2019-06-18T04:26:42.442Z,90.68
2019-06-18T04:27:40.031Z,90.78
2019-06-18T04:28:39.999Z,90.92
2019-06-18T04:29:39.990Z,90.82
2019-06-18T04:30:39.973Z,91.11
2019-06-18T04:31:39.962Z,91.02
2019-06-18T04:32:39.944Z,91.02
2019-06-18T04:33:39.931Z,91.02
2019-06-18T04:34:39.916Z,91.20
2019-06-18T04:35:42.274Z,91.02
2019-06-18T04:36:42.251Z,90.92
2019-06-18T04:37:39.876Z,91.11
2019-06-18T04:38:39.871Z,90.73
2019-06-18T04:39:42.468Z,90.73
2019-06-18T04:40:42.598Z,90.73
2019-06-18T04:41:39.819Z,91.39
2019-06-18T04:42:42.221Z,91.20
2019-06-18T04:43:39.796Z,91.44
2019-06-18T04:44:39.778Z,91.35
2019-06-18T04:45:39.772Z,90.96
2019-06-18T04:46:39.756Z,90.96
2019-06-18T04:47:39.737Z,91.35
2019-06-18T04:48:42.207Z,91.25
2019-06-18T04:49:39.714Z,91.06
2019-06-18T04:50:39.703Z,91.39
2019-06-18T04:51:39.680Z,91.39
2019-06-18T04:52:39.679Z,91.39
2019-06-18T04:53:42.576Z,91.49
2019-06-18T04:54:39.646Z,91.49
2019-06-18T04:55:42.368Z,91.11
2019-06-18T04:56:39.611Z,91.05
2019-06-18T04:57:42.263Z,90.77
2019-06-18T04:58:39.584Z,91.05
2019-06-18T04:59:42.476Z,90.86
2019-06-18T05:00:39.566Z,90.48
2019-06-18T05:01:39.580Z,90.48
2019-06-18T05:02:39.538Z,90.48
2019-06-18T05:03:39.525Z,90.48
2019-06-18T05:04:40.183Z,90.23
2019-06-18T05:05:39.498Z,90.33
2019-06-18T05:06:42.421Z,90.62
2019-06-18T05:07:39.519Z,90.43
2019-06-18T05:08:42.373Z,90.23
2019-06-18T05:09:39.448Z,90.23
2019-06-18T05:10:39.435Z,90.62
2019-06-18T05:11:39.490Z,89.86
2019-06-18T05:12:39.406Z,89.80
2019-06-18T05:13:39.399Z,90.28
2019-06-18T05:14:39.389Z,90.28
2019-06-18T05:15:39.373Z,90.09
2019-06-18T05:16:39.364Z,89.80
2019-06-18T05:17:39.351Z,89.51
2019-06-18T05:18:41.160Z,90.00
2019-06-18T05:19:39.324Z,89.85
2019-06-18T05:20:39.310Z,89.37
2019-06-18T05:21:39.297Z,89.47
2019-06-18T05:22:39.284Z,89.47
2019-06-18T05:23:39.270Z,89.27
2019-06-18T05:24:39.261Z,89.37
2019-06-18T05:25:39.247Z,88.89
2019-06-18T05:26:39.234Z,89.22
2019-06-18T05:27:39.224Z,89.41
2019-06-18T05:28:39.211Z,88.84
2019-06-18T05:29:39.203Z,89.12
2019-06-18T05:30:39.189Z,89.12
2019-06-18T05:31:39.177Z,88.45
2019-06-18T05:32:39.167Z,88.59
2019-06-18T05:33:39.157Z,88.49
2019-06-18T05:34:39.140Z,88.11
2019-06-18T05:35:39.135Z,88.21
2019-06-18T05:36:39.120Z,87.87
2019-06-18T05:37:39.107Z,88.16
2019-06-18T05:38:39.097Z,87.39
2019-06-18T05:39:39.084Z,87.68
2019-06-18T05:40:39.073Z,87.19
2019-06-18T05:41:39.063Z,87.39
2019-06-18T05:42:39.053Z,86.85
2019-06-18T05:43:39.040Z,87.24
2019-06-18T05:44:39.026Z,86.85
2019-06-18T05:45:39.038Z,86.66
2019-06-18T05:46:39.017Z,86.47
2019-06-18T05:47:39.002Z,86.71
2019-06-18T05:48:53.470Z,86.80
2019-06-18T05:49:38.975Z,86.32
2019-06-18T05:50:38.961Z,86.32
2019-06-18T05:51:38.954Z,85.75
2019-06-18T05:52:38.960Z,85.65
2019-06-18T05:53:38.931Z,85.69
2019-06-18T05:54:38.924Z,85.88
2019-06-18T05:55:39.333Z,85.21
2019-06-18T05:56:38.898Z,84.83
2019-06-18T05:57:38.889Z,85.02
2019-06-18T05:58:38.879Z,84.25
2019-06-18T05:59:38.876Z,84.63
2019-06-18T06:00:38.859Z,84.06
2019-06-18T06:01:38.850Z,84.00
2019-06-18T06:02:38.839Z,83.42
2019-06-18T06:03:38.838Z,83.72
2019-06-18T06:04:38.820Z,83.14
2019-06-18T06:05:38.809Z,83.04
2019-06-18T06:06:38.807Z,82.85
2019-06-18T06:07:39.217Z,82.75
2019-06-18T06:08:38.775Z,82.31
2019-06-18T06:09:38.870Z,82.12
2019-06-18T06:10:38.789Z,81.30
2019-06-18T06:11:38.749Z,81.83
2019-06-18T06:12:38.738Z,81.54
2019-06-18T06:13:38.730Z,81.45
2019-06-18T06:14:38.718Z,81.06
2019-06-18T06:15:38.710Z,81.25
2019-06-18T06:16:38.698Z,80.33
2019-06-18T06:17:38.690Z,80.62
2019-06-18T06:18:38.680Z,80.52
2019-06-18T06:19:38.673Z,80.23
2019-06-18T06:20:38.668Z,79.75
2019-06-18T06:21:38.656Z,80.04
2019-06-18T06:22:38.648Z,80.37
2019-06-18T06:23:38.631Z,79.50
2019-06-18T06:24:38.627Z,79.31
2019-06-18T06:25:38.614Z,79.21
2019-06-18T06:26:38.613Z,79.11
2019-06-18T06:27:38.594Z,79.31
2019-06-18T06:28:38.585Z,79.02
2019-06-18T06:29:38.573Z,79.02
2019-06-18T06:30:38.569Z,78.83
2019-06-18T06:31:38.555Z,78.92
2019-06-18T06:32:38.551Z,78.09
2019-06-18T06:33:38.542Z,78.19
2019-06-18T06:34:38.530Z,78.19
2019-06-18T06:35:38.525Z,77.81
2019-06-18T06:36:38.536Z,78.09
2019-06-18T06:37:38.503Z,77.55
2019-06-18T06:38:38.621Z,77.36
2019-06-18T06:39:38.484Z,76.68
2019-06-18T06:40:38.482Z,76.68
2019-06-18T06:41:38.476Z,76.72
2019-06-18T06:42:38.475Z,75.85
2019-06-18T06:43:38.454Z,75.85
2019-06-18T06:44:38.449Z,75.67
2019-06-18T06:45:38.437Z,75.76
2019-06-18T06:46:38.431Z,75.57
2019-06-18T06:47:38.422Z,75.37
2019-06-18T06:48:38.414Z,74.89
2019-06-18T06:49:38.418Z,75.47
2019-06-18T06:50:38.412Z,74.93
2019-06-18T06:51:38.402Z,74.16
2019-06-18T06:52:38.382Z,74.16
2019-06-18T06:53:38.405Z,74.16
2019-06-18T06:54:38.367Z,73.52
2019-06-18T06:55:38.360Z,73.71
2019-06-18T06:56:38.350Z,73.32
2019-06-18T06:57:38.345Z,73.22
2019-06-18T06:58:38.340Z,72.55
2019-06-18T06:59:38.329Z,72.84
2019-06-18T07:00:38.319Z,72.74
2019-06-18T07:01:38.308Z,72.94
2019-06-18T07:02:38.305Z,72.55
2019-06-18T07:03:38.299Z,72.36
2019-06-18T07:04:38.290Z,72.39
2019-06-18T07:05:38.280Z,71.81
2019-06-18T07:06:38.276Z,72.20
2019-06-18T07:07:38.267Z,71.72
2019-06-18T07:08:38.263Z,71.33
2019-06-18T07:09:38.257Z,71.33
2019-06-18T07:10:38.247Z,71.23
2019-06-18T07:11:38.253Z,71.08
2019-06-18T07:12:38.234Z,70.88
2019-06-18T07:13:38.234Z,70.40
2019-06-18T07:14:38.222Z,70.50
2019-06-18T07:15:38.225Z,70.24
2019-06-18T07:16:40.802Z,69.92
2019-06-18T07:17:38.204Z,70.14
2019-06-18T07:18:38.191Z,70.04
2019-06-18T07:19:50.569Z,69.08
2019-06-18T07:20:38.180Z,69.66
2019-06-18T07:21:38.174Z,68.98
2019-06-18T07:22:38.170Z,68.82
2019-06-18T07:23:38.159Z,68.82
2019-06-18T07:24:38.156Z,68.73
2019-06-18T07:25:38.148Z,68.43
2019-06-18T07:26:38.150Z,68.53
2019-06-18T07:27:38.136Z,67.95
2019-06-18T07:28:38.152Z,68.27
2019-06-18T07:29:38.122Z,67.79
2019-06-18T07:30:38.129Z,67.60
2019-06-18T07:31:38.128Z,67.40
2019-06-18T07:32:38.110Z,67.14
2019-06-18T07:33:38.119Z,66.85
2019-06-18T07:34:38.097Z,66.60
2019-06-18T07:35:38.096Z,66.11
2019-06-18T07:36:38.089Z,66.02
2019-06-18T07:37:38.085Z,66.30
2019-06-18T07:38:38.081Z,65.82
2019-06-18T07:39:38.077Z,65.85
2019-06-18T07:40:38.071Z,65.37
2019-06-18T07:41:38.062Z,65.08
2019-06-18T07:42:38.070Z,64.40
2019-06-18T07:43:38.054Z,63.26
2019-06-18T07:44:38.051Z,62.65
2019-06-18T07:45:38.046Z,62.26
2019-06-18T07:46:38.041Z,62.36
2019-06-18T07:47:38.039Z,62.39
2019-06-18T07:48:38.036Z,61.81
2019-06-18T07:49:38.025Z,61.13
2019-06-18T07:50:38.024Z,61.04
2019-06-18T07:51:38.023Z,60.94
2019-06-18T07:52:38.014Z,60.84
2019-06-18T07:53:38.012Z,60.28
2019-06-18T07:54:38.007Z,60.38
2019-06-18T07:55:38.004Z,59.80
2019-06-18T07:56:37.998Z,60.00
2019-06-18T07:57:37.997Z,60.02
2019-06-18T07:58:37.987Z,60.02
2019-06-18T07:59:37.987Z,59.44
2019-06-18T08:00:37.981Z,59.67
2019-06-18T08:01:37.973Z,58.79
2019-06-18T08:02:37.972Z,58.98
2019-06-18T08:03:37.971Z,58.40
2019-06-18T08:04:37.975Z,58.53
2019-06-18T08:05:37.961Z,58.14
2019-06-18T08:06:37.957Z,57.78
2019-06-18T08:07:37.955Z,57.29
2019-06-18T08:08:37.969Z,57.29
2019-06-18T08:09:37.948Z,56.90
2019-06-18T08:10:37.944Z,55.83
2019-06-18T08:11:37.942Z,56.32
2019-06-18T08:12:37.937Z,56.12
2019-06-18T08:13:37.931Z,55.76
2019-06-18T08:14:37.933Z,55.37
2019-06-18T08:15:37.933Z,55.37
2019-06-18T08:16:37.924Z,54.69
2019-06-18T08:17:37.921Z,54.69
2019-06-18T08:18:37.916Z,54.62
2019-06-18T08:19:37.915Z,54.43
2019-06-18T08:20:38.738Z,53.85
2019-06-18T08:21:37.907Z,53.65
2019-06-18T08:22:37.927Z,53.19
2019-06-18T08:23:37.901Z,52.50
2019-06-18T08:24:40.522Z,52.12
2019-06-18T08:25:37.896Z,52.12
2019-06-18T08:26:37.892Z,51.99
2019-06-18T08:27:37.890Z,52.19
2019-06-18T08:28:37.885Z,52.09
2019-06-18T08:29:37.882Z,51.92
2019-06-18T08:30:37.879Z,51.92
2019-06-18T08:31:52.915Z,51.82
2019-06-18T08:32:37.870Z,51.65
2019-06-18T08:33:37.870Z,51.75
2019-06-18T08:34:37.867Z,52.14
2019-06-18T08:35:37.865Z,51.29
2019-06-18T08:36:37.863Z,51.48
2019-06-18T08:37:37.859Z,50.92
2019-06-18T08:38:38.661Z,50.43
2019-06-18T08:39:37.858Z,50.14
2019-06-18T08:40:37.850Z,49.56
2019-06-18T08:41:37.848Z,49.46
2019-06-18T08:42:37.848Z,49.98
2019-06-18T08:43:37.843Z,49.19
2019-06-18T08:44:37.845Z,48.90
2019-06-18T08:45:37.840Z,48.80
2019-06-18T08:46:37.843Z,48.61
2019-06-18T08:47:37.836Z,48.63
2019-06-18T08:48:37.844Z,48.54
2019-06-18T08:49:37.830Z,49.02
2019-06-18T08:50:46.957Z,48.26
2019-06-18T08:51:37.827Z,47.97
2019-06-18T08:52:37.823Z,48.19
2019-06-18T08:53:37.823Z,47.31
2019-06-18T08:54:37.820Z,47.02
2019-06-18T08:55:37.819Z,46.75
2019-06-18T08:56:37.811Z,47.24
2019-06-18T08:57:37.815Z,46.75
2019-06-18T08:58:37.812Z,46.75
2019-06-18T08:59:37.819Z,46.65
2019-06-18T09:00:37.811Z,46.55
2019-06-18T09:01:37.804Z,46.67
2019-06-18T09:02:37.821Z,46.57
2019-06-18T09:03:37.810Z,46.37
2019-06-18T09:04:37.798Z,45.91
2019-06-18T09:05:37.800Z,45.52
2019-06-18T09:06:37.823Z,45.64
2019-06-18T09:07:37.799Z,45.15
2019-06-18T09:08:37.805Z,44.66
2019-06-18T09:09:38.104Z,44.38
2019-06-18T09:10:38.277Z,44.38
2019-06-18T09:11:37.790Z,43.90
2019-06-18T09:12:37.792Z,43.80
2019-06-18T09:13:37.792Z,43.72
2019-06-18T09:14:37.794Z,43.43
2019-06-18T09:15:37.789Z,43.33
2019-06-18T09:16:37.825Z,42.94
2019-06-18T09:17:37.790Z,42.86
2019-06-18T09:18:37.868Z,42.76
2019-06-18T09:19:37.785Z,42.98
2019-06-18T09:20:37.784Z,42.39
2019-06-18T09:21:37.875Z,42.10
2019-06-18T09:22:37.781Z,42.41
2019-06-18T09:23:37.791Z,41.63
2019-06-18T09:24:37.788Z,40.94
2019-06-18T09:25:37.783Z,40.94
2019-06-18T09:26:37.778Z,41.14
2019-06-18T09:27:37.779Z,40.64
2019-06-18T09:28:37.779Z,40.64
2019-06-18T09:29:37.784Z,40.64
2019-06-18T09:30:37.786Z,40.66
2019-06-18T09:31:37.781Z,40.47
2019-06-18T09:32:37.786Z,39.90
2019-06-18T09:33:37.776Z,39.80
2019-06-18T09:34:37.778Z,39.13
2019-06-18T09:35:37.877Z,39.13
2019-06-18T09:36:37.779Z,39.42
2019-06-18T09:37:37.779Z,39.40
2019-06-18T09:38:37.777Z,39.31
2019-06-18T09:39:37.807Z,39.40
2019-06-18T09:40:37.780Z,39.32
2019-06-18T09:41:37.776Z,38.54
2019-06-18T09:42:37.779Z,38.34
2019-06-18T09:43:37.776Z,38.54
2019-06-18T09:44:37.783Z,38.44
2019-06-18T09:45:37.801Z,38.44
2019-06-18T09:46:37.776Z,39.11
2019-06-18T09:47:37.783Z,39.09
2019-06-18T09:48:37.776Z,39.56
2019-06-18T09:49:37.776Z,39.54
2019-06-18T09:50:37.774Z,39.64
2019-06-18T09:51:37.769Z,40.01
2019-06-18T09:52:38.507Z,40.21
2019-06-18T09:53:37.772Z,40.21
2019-06-18T09:54:37.772Z,40.58
2019-06-18T09:55:37.775Z,40.68
2019-06-18T09:56:37.772Z,40.95
2019-06-18T09:57:37.772Z,40.84
2019-06-18T09:58:37.771Z,40.76
2019-06-18T09:59:37.770Z,40.66
2019-06-18T10:00:37.767Z,40.58
2019-06-18T10:01:37.770Z,40.21
2019-06-18T10:02:37.769Z,40.23
2019-06-18T10:03:37.768Z,39.74
2019-06-18T10:04:37.763Z,39.56
2019-06-18T10:05:37.765Z,39.19
2019-06-18T10:06:37.763Z,38.40
2019-06-18T10:07:37.762Z,38.13
2019-06-18T10:08:37.768Z,37.95
2019-06-18T10:09:37.885Z,38.24
2019-06-18T10:10:37.769Z,37.18
2019-06-18T10:11:37.763Z,36.88
2019-06-18T10:12:37.761Z,37.46
2019-06-18T10:13:37.862Z,37.36
2019-06-18T10:14:37.762Z,37.55
2019-06-18T10:15:37.760Z,37.38
2019-06-18T10:16:37.761Z,37.48
2019-06-18T10:17:37.768Z,37.28
2019-06-18T10:18:37.772Z,36.88
2019-06-18T10:19:37.756Z,36.80
2019-06-18T10:20:37.760Z,36.61
2019-06-18T10:21:43.758Z,36.32
2019-06-18T10:22:37.830Z,35.82
2019-06-18T10:23:37.769Z,36.22
2019-06-18T10:24:37.759Z,36.02
2019-06-18T10:25:37.785Z,35.63
2019-06-18T10:26:37.763Z,35.82
2019-06-18T10:27:37.763Z,35.74
2019-06-18T10:28:37.765Z,35.84
2019-06-18T10:29:57.675Z,35.17
2019-06-18T10:30:37.762Z,35.17
2019-06-18T10:31:37.770Z,34.97
2019-06-18T10:32:37.765Z,35.17
2019-06-18T10:33:37.768Z,35.17
2019-06-18T10:34:37.767Z,34.99
2019-06-18T10:35:37.765Z,34.79
2019-06-18T10:36:38.017Z,34.79
2019-06-18T10:37:37.799Z,34.87
2019-06-18T10:38:37.769Z,34.97
2019-06-18T10:39:38.023Z,34.77
2019-06-18T10:40:37.998Z,34.87
2019-06-18T10:41:37.770Z,34.28
2019-06-18T10:42:38.070Z,33.89
2019-06-18T10:43:38.338Z,34.17
2019-06-18T10:44:37.773Z,33.87
2019-06-18T10:45:37.775Z,33.97
2019-06-18T10:46:37.775Z,34.17
2019-06-18T10:47:37.779Z,34.17
2019-06-18T10:48:37.774Z,34.25
2019-06-18T10:49:37.776Z,34.74
2019-06-18T10:50:37.773Z,34.72
2019-06-18T10:51:53.016Z,34.72
2019-06-18T10:52:38.551Z,35.30
2019-06-18T10:53:37.798Z,35.28
2019-06-18T10:54:37.787Z,35.66
2019-06-18T10:55:37.776Z,36.21
2019-06-18T10:56:37.773Z,36.68
2019-06-18T10:57:37.776Z,36.96
2019-06-18T10:58:37.821Z,37.23
2019-06-18T10:59:37.801Z,37.23
2019-06-18T11:00:37.777Z,37.41
2019-06-18T11:01:37.775Z,37.61
2019-06-18T11:02:37.775Z,37.43
2019-06-18T11:03:37.770Z,37.15
2019-06-18T11:04:37.771Z,37.25
2019-06-18T11:05:37.775Z,37.37
2019-06-18T11:06:37.776Z,37.19
2019-06-18T11:07:37.785Z,36.80
2019-06-18T11:08:37.769Z,36.82
2019-06-18T11:09:37.766Z,35.85
2019-06-18T11:10:37.803Z,35.67
2019-06-18T11:11:37.765Z,35.57
2019-06-18T11:12:37.776Z,35.57
2019-06-18T11:13:37.765Z,35.30
2019-06-18T11:14:37.766Z,35.39
2019-06-18T11:15:37.818Z,35.41
2019-06-18T11:16:37.767Z,35.41
2019-06-18T11:17:37.767Z,35.21
2019-06-18T11:18:37.853Z,35.69
2019-06-18T11:19:37.837Z,35.59
2019-06-18T11:20:37.776Z,36.07
2019-06-18T11:21:37.761Z,36.32
2019-06-18T11:22:37.764Z,36.70
2019-06-18T11:23:38.415Z,37.09
2019-06-18T11:24:37.761Z,37.17
2019-06-18T11:25:37.843Z,37.35
2019-06-18T11:26:37.762Z,37.23
2019-06-18T11:27:37.759Z,37.81
2019-06-18T11:28:37.768Z,37.81
2019-06-18T11:29:37.760Z,37.81
2019-06-18T11:30:38.297Z,37.82
2019-06-18T11:31:37.759Z,37.13
2019-06-18T11:32:37.762Z,37.23
2019-06-18T11:33:37.755Z,37.23
2019-06-18T11:34:37.753Z,37.35
2019-06-18T11:35:37.753Z,36.98
2019-06-18T11:36:37.755Z,36.70
2019-06-18T11:37:37.780Z,36.22
2019-06-18T11:38:37.753Z,36.46
2019-06-18T11:39:37.759Z,35.77
2019-06-18T11:40:37.750Z,35.39
2019-06-18T11:41:37.754Z,35.00
2019-06-18T11:42:37.751Z,34.90
2019-06-18T11:43:37.747Z,34.82
2019-06-18T11:44:37.749Z,34.54
2019-06-18T11:45:37.755Z,34.15
2019-06-18T11:46:37.752Z,33.97
2019-06-18T11:47:38.322Z,33.77
2019-06-18T11:48:37.753Z,33.39
2019-06-18T11:49:37.765Z,33.59
2019-06-18T11:50:37.957Z,33.70
2019-06-18T11:51:38.019Z,33.72
2019-06-18T11:52:37.780Z,33.25
2019-06-18T11:53:37.844Z,32.75
2019-06-18T11:54:37.841Z,32.85
2019-06-18T11:55:37.760Z,33.04
2019-06-18T11:56:37.761Z,32.56
2019-06-18T11:57:37.777Z,32.44
2019-06-18T11:58:37.768Z,32.64
2019-06-18T11:59:37.770Z,32.64
2019-06-18T12:00:37.780Z,32.64
2019-06-18T12:01:37.778Z,32.93
2019-06-18T12:02:37.778Z,32.56
2019-06-18T12:03:37.776Z,32.28
2019-06-18T12:04:37.800Z,32.18
2019-06-18T12:05:37.785Z,32.19
2019-06-18T12:06:37.788Z,31.79
2019-06-18T12:07:37.785Z,31.81
2019-06-18T12:08:37.792Z,31.62
2019-06-18T12:09:37.808Z,31.71
2019-06-18T12:10:37.799Z,31.51
2019-06-18T12:11:37.797Z,31.51
2019-06-18T12:12:37.805Z,31.51
2019-06-18T12:13:37.805Z,31.50
2019-06-18T12:14:37.810Z,31.78
2019-06-18T12:15:37.819Z,32.56
2019-06-18T12:16:37.813Z,32.62
2019-06-18T12:17:37.865Z,33.29
2019-06-18T12:18:37.827Z,33.59
2019-06-18T12:19:37.818Z,33.59
2019-06-18T12:20:37.826Z,33.70
2019-06-18T12:21:37.829Z,33.33
2019-06-18T12:22:48.066Z,33.15
2019-06-18T12:23:37.829Z,32.57
2019-06-18T12:24:37.832Z,32.39
2019-06-18T12:25:37.841Z,32.21
2019-06-18T12:26:37.861Z,32.09
2019-06-18T12:27:37.847Z,31.79
2019-06-18T12:28:37.845Z,31.38
2019-06-18T12:29:37.855Z,31.85
2019-06-18T12:30:37.854Z,32.42
2019-06-18T12:31:37.858Z,32.39
2019-06-18T12:32:51.280Z,33.36
2019-06-18T12:33:37.861Z,33.43
2019-06-18T12:34:37.865Z,33.70
2019-06-18T12:35:37.870Z,34.28
2019-06-18T12:36:37.866Z,34.66
2019-06-18T12:37:37.871Z,34.66
2019-06-18T12:38:37.883Z,34.67
2019-06-18T12:39:37.872Z,35.26
2019-06-18T12:40:37.879Z,34.77
2019-06-18T12:41:37.876Z,35.14
2019-06-18T12:42:37.876Z,35.42
2019-06-18T12:43:37.877Z,35.62
2019-06-18T12:44:37.875Z,36.09
2019-06-18T12:45:37.875Z,36.08
2019-06-18T12:46:37.877Z,36.66
2019-06-18T12:47:37.876Z,36.74
2019-06-18T12:48:37.893Z,36.86
2019-06-18T12:49:37.894Z,36.65
2019-06-18T12:50:37.876Z,36.65
2019-06-18T12:51:37.877Z,36.65
2019-06-18T12:52:37.874Z,36.74